Time;durP1;ratioP1;P1;durP2;ratioP2;P2;SDS_P1;SDS_P2;PMS_P1;PMS_P2;Temp;Humidity;BMP_temperature;BMP_pressure;BME280_temperature;BME280_humidity;BME280_pressure;Samples;Min_cycle;Max_cycle;Signal;HPM_P1;HPM_P2
2024/01/11 00:00:35;;;;;;;0.10;0.10;;;-0.60;99.90;;;;;;5054767;28;20021;-73
2024/01/11 00:03:02;;;;;;;0.10;0.10;;;-0.70;99.90;;;;;;5050564;28;20037;-73
2024/01/11 00:05:28;;;;;;;0.90;0.90;;;-0.70;99.90;;;;;;5044924;28;20104;-73
2024/01/11 00:07:54;;;;;;;0.75;0.75;;;-0.80;99.90;;;;;;5054838;28;20116;-73
2024/01/11 00:10:20;;;;;;;0.28;0.28;;;-0.80;99.90;;;;;;5054507;28;20025;-72
2024/01/11 00:12:47;;;;;;;0.10;0.10;;;-0.80;99.90;;;;;;5054581;28;20067;-72
2024/01/11 00:15:13;;;;;;;2.95;2.70;;;-0.70;99.90;;;;;;5054379;28;20048;-72
2024/01/11 00:17:39;;;;;;;3.50;1.27;;;-0.50;99.90;;;;;;5054510;28;20075;-72
2024/01/11 00:20:06;;;;;;;0.20;0.20;;;-0.40;99.90;;;;;;5054216;28;20111;-72
2024/01/11 00:22:32;;;;;;;0.40;0.40;;;-0.40;99.90;;;;;;5036720;28;20025;-72
2024/01/11 00:24:58;;;;;;;0.45;0.45;;;-0.40;99.90;;;;;;5053826;28;20036;-72
2024/01/11 00:27:24;;;;;;;5.57;2.75;;;-0.30;99.90;;;;;;5054413;28;20045;-72
2024/01/11 00:29:49;;;;;;;0.80;0.50;;;-0.20;99.90;;;;;;5052926;28;20025;-72
2024/01/11 00:32:15;;;;;;;1.52;1.42;;;-0.10;99.90;;;;;;5053915;28;20020;-74
2024/01/11 00:34:41;;;;;;;3.42;3.13;;;-0.20;99.90;;;;;;5054360;28;20028;-74
2024/01/11 00:37:07;;;;;;;2.90;2.63;;;-0.10;99.90;;;;;;5036312;28;20017;-74
2024/01/11 00:39:33;;;;;;;1.45;1.35;;;-0.40;99.90;;;;;;5054019;28;20040;-74
2024/01/11 00:41:59;;;;;;;0.43;0.43;;;-0.70;99.90;;;;;;5053773;28;20393;-74
2024/01/11 00:44:25;;;;;;;0.30;0.30;;;-0.70;99.90;;;;;;5036027;28;20029;-72
2024/01/11 00:46:51;;;;;;;0.25;0.25;;;-0.50;99.90;;;;;;5052581;28;20036;-72
2024/01/11 00:49:17;;;;;;;2.92;1.98;;;-0.50;99.90;;;;;;5053889;28;20029;-72
2024/01/11 00:51:43;;;;;;;0.10;0.10;;;-0.50;99.90;;;;;;5053668;28;20392;-73
2024/01/11 00:54:08;;;;;;;1.02;1.00;;;-0.60;99.90;;;;;;5053273;28;20029;-72
2024/01/11 00:56:34;;;;;;;0.57;0.57;;;-0.60;99.90;;;;;;5053731;28;20385;-74
2024/01/11 00:59:01;;;;;;;1.88;1.75;;;-0.40;99.90;;;;;;5053796;28;20093;-72
2024/01/11 01:01:27;;;;;;;0.47;0.47;;;-0.40;99.90;;;;;;5053220;28;20029;-72
2024/01/11 01:03:52;;;;;;;28.00;6.47;;;-0.30;99.90;;;;;;5052316;28;20051;-73
2024/01/11 01:06:18;;;;;;;1.08;1.08;;;-0.30;99.90;;;;;;5035550;28;20036;-73
2024/01/11 01:08:44;;;;;;;0.63;0.63;;;-0.50;99.90;;;;;;5035699;28;20359;-74
2024/01/11 01:11:10;;;;;;;3.58;3.38;;;-0.70;99.90;;;;;;5053248;28;20029;-74
2024/01/11 01:13:36;;;;;;;3.60;3.25;;;-0.50;99.90;;;;;;5053451;28;20032;-74
2024/01/11 01:16:02;;;;;;;0.20;0.20;;;-0.40;99.90;;;;;;5053108;28;20037;-74
2024/01/11 01:18:28;;;;;;;0.60;0.60;;;-0.40;99.90;;;;;;5053351;28;20032;-74
2024/01/11 01:20:55;;;;;;;0.20;0.20;;;-0.60;99.90;;;;;;5053564;28;20033;-74
2024/01/11 01:23:20;;;;;;;4.57;2.75;;;-0.60;99.90;;;;;;5052888;28;20017;-74
2024/01/11 01:25:46;;;;;;;3.30;2.20;;;-0.70;99.90;;;;;;5053304;28;20076;-73
2024/01/11 01:28:12;;;;;;;0.10;0.10;;;-0.80;99.90;;;;;;5051787;28;20036;-74
2024/01/11 01:30:38;;;;;;;7.43;3.15;;;-0.90;99.90;;;;;;5053222;28;20017;-74
2024/01/11 01:33:04;;;;;;;0.50;0.50;;;-0.90;99.90;;;;;;5052934;28;20469;-73
2024/01/11 01:35:29;;;;;;;0.75;0.75;;;-0.80;99.90;;;;;;5052975;28;20021;-73
2024/01/11 01:37:55;;;;;;;2.42;1.60;;;-0.80;99.90;;;;;;5052835;28;20468;-73
2024/01/11 01:40:21;;;;;;;0.65;0.65;;;-0.90;99.90;;;;;;5051899;28;20525;-73
2024/01/11 01:42:48;;;;;;;3.58;3.35;;;-0.80;99.90;;;;;;5052187;28;20116;-73
2024/01/11 01:45:16;;;;;;;0.10;0.10;;;-0.80;99.90;;;;;;5052700;28;20462;-74
2024/01/11 01:47:43;;;;;;;0.10;0.10;;;-0.70;99.90;;;;;;5052642;28;20075;-73
2024/01/11 01:50:11;;;;;;;6.72;2.08;;;-0.90;99.90;;;;;;5052870;28;20466;-74
2024/01/11 01:52:39;;;;;;;0.17;0.17;;;-1.00;99.90;;;;;;5018333;28;20032;-74
2024/01/11 01:55:08;;;;;;;0.20;0.20;;;-1.10;99.90;;;;;;5052753;28;20029;-73
2024/01/11 01:57:35;;;;;;;0.38;0.38;;;-1.00;99.90;;;;;;5051281;28;20035;-74
2024/01/11 02:00:02;;;;;;;0.10;0.10;;;-1.20;99.90;;;;;;5052755;28;20537;-74
2024/01/11 02:02:39;;;;;;;2.22;1.10;;;-1.30;99.90;;;;;;5052480;28;20159;-73
2024/01/11 02:05:06;;;;;;;0.30;0.30;;;-1.30;99.90;;;;;;5052779;28;20087;-73
2024/01/11 02:07:32;;;;;;;0.30;0.30;;;-1.20;99.90;;;;;;5052335;28;20025;-74
2024/01/11 02:09:58;;;;;;;1.40;1.30;;;-1.10;99.90;;;;;;5052373;28;20056;-73
2024/01/11 02:12:25;;;;;;;0.10;0.10;;;-1.10;99.90;;;;;;5052546;28;20033;-74
2024/01/11 02:14:53;;;;;;;0.10;0.10;;;-1.10;99.90;;;;;;5034531;28;20050;-74
2024/01/11 02:17:20;;;;;;;4.88;2.55;;;-1.20;99.90;;;;;;5052629;28;20037;-74
2024/01/11 02:19:47;;;;;;;1.45;1.35;;;-1.20;99.90;;;;;;5052353;28;20053;-74
2024/01/11 02:22:24;;;;;;;0.10;0.10;;;-1.20;99.90;;;;;;5034655;28;20029;-74
2024/01/11 02:24:50;;;;;;;2.70;2.50;;;-1.20;99.90;;;;;;5052186;28;20398;-74
2024/01/11 02:27:16;;;;;;;0.10;0.10;;;-1.20;99.90;;;;;;5051159;28;20024;-73
2024/01/11 02:29:42;;;;;;;0.30;0.30;;;-1.60;99.90;;;;;;5052346;28;20032;-74
2024/01/11 02:32:08;;;;;;;0.10;0.10;;;-1.50;99.90;;;;;;5052453;28;20017;-74
2024/01/11 02:34:35;;;;;;;0.20;0.20;;;-1.40;99.90;;;;;;5052311;28;20055;-73
2024/01/11 02:37:00;;;;;;;1.23;1.13;;;-1.30;99.90;;;;;;5051972;28;20099;-74
2024/01/11 02:39:26;;;;;;;0.10;0.10;;;-1.20;99.90;;;;;;5034282;28;20466;-74
2024/01/11 02:41:55;;;;;;;1.55;1.48;;;-1.10;99.90;;;;;;5052351;28;20017;-73
2024/01/11 02:44:20;;;;;;;2.55;1.85;;;-1.10;99.90;;;;;;5034344;28;20029;-74
2024/01/11 02:46:46;;;;;;;0.30;0.30;;;-1.10;99.90;;;;;;5052264;28;20047;-74
2024/01/11 02:49:12;;;;;;;0.10;0.10;;;-1.20;99.90;;;;;;5050737;28;20486;-74
2024/01/11 02:51:37;;;;;;;0.10;0.10;;;-1.20;99.90;;;;;;5051971;28;20116;-74
2024/01/11 02:54:03;;;;;;;1.02;1.02;;;-1.40;99.90;;;;;;5053350;28;20096;-74
2024/01/11 02:56:30;;;;;;;0.73;0.73;;;-1.50;99.90;;;;;;5038454;28;20090;-74
2024/01/11 02:58:56;;;;;;;0.75;0.75;;;-1.80;99.90;;;;;;5055950;28;20092;-74
2024/01/11 03:01:21;;;;;;;1.45;0.98;;;-1.80;99.90;;;;;;5055730;28;20070;-74
2024/01/11 03:03:47;;;;;;;0.30;0.30;;;-1.90;99.90;;;;;;5055853;28;20020;-74
2024/01/11 03:06:14;;;;;;;1.13;1.10;;;-1.90;99.90;;;;;;5055463;28;20028;-74
2024/01/11 03:08:39;;;;;;;1.50;1.50;;;-1.80;99.90;;;;;;5052122;28;20029;-74
2024/01/11 03:11:06;;;;;;;3.13;2.92;;;-1.70;99.90;;;;;;5055723;28;20386;-74
2024/01/11 03:13:32;;;;;;;0.52;0.52;;;-1.60;99.90;;;;;;5037658;28;20112;-74
2024/01/11 03:15:58;;;;;;;1.83;1.73;;;-1.50;99.90;;;;;;5055404;28;20115;-74
2024/01/11 03:18:24;;;;;;;0.20;0.20;;;-1.60;99.90;;;;;;5037898;28;20104;-74
2024/01/11 03:20:51;;;;;;;1.17;1.08;;;-1.70;99.90;;;;;;5055106;28;20401;-74
2024/01/11 03:23:16;;;;;;;0.20;0.20;;;-1.70;99.90;;;;;;5037666;28;20021;-74
2024/01/11 03:25:42;;;;;;;0.10;0.10;;;-1.60;99.90;;;;;;5055294;28;20478;-74
2024/01/11 03:28:08;;;;;;;2.25;2.10;;;-1.50;99.90;;;;;;5055439;28;20401;-74
2024/01/11 03:30:35;;;;;;;0.20;0.20;;;-1.50;99.90;;;;;;5055301;28;20087;-74
2024/01/11 03:33:00;;;;;;;0.20;0.20;;;-1.60;99.90;;;;;;5055337;28;20470;-74
2024/01/11 03:35:27;;;;;;;0.20;0.20;;;-1.50;99.90;;;;;;5053862;28;20029;-74
2024/01/11 03:37:53;;;;;;;0.30;0.30;;;-1.60;99.90;;;;;;5055322;28;20025;-74
2024/01/11 03:40:18;;;;;;;3.50;2.10;;;-1.90;99.90;;;;;;5055123;28;20029;-74
2024/01/11 03:42:44;;;;;;;1.10;0.73;;;-2.10;99.90;;;;;;5055193;28;20485;-74
2024/01/11 03:45:10;;;;;;;0.20;0.20;;;-2.00;99.90;;;;;;5054678;28;20115;-74
2024/01/11 03:47:36;;;;;;;0.10;0.10;;;-2.00;99.90;;;;;;5054878;28;20037;-74
2024/01/11 03:50:03;;;;;;;0.10;0.10;;;-1.90;99.90;;;;;;5054583;28;20021;-74
2024/01/11 03:52:29;;;;;;;0.20;0.20;;;-1.90;99.90;;;;;;5046771;28;20037;-74
2024/01/11 03:54:55;;;;;;;2.58;2.40;;;-1.90;99.90;;;;;;5034559;28;20030;-74
2024/01/11 03:57:21;;;;;;;0.70;0.68;;;-2.00;99.90;;;;;;5054588;28;20052;-74
2024/01/11 03:59:47;;;;;;;6.65;4.03;;;-2.10;99.90;;;;;;5054375;28;20082;-74
2024/01/11 04:02:13;;;;;;;0.47;0.47;;;-2.20;99.90;;;;;;5036844;28;20465;-74
2024/01/11 04:04:41;;;;;;;10.98;7.35;;;-2.50;99.90;;;;;;5053811;28;20424;-74
2024/01/11 04:07:07;;;;;;;2.63;2.45;;;-2.70;99.90;;;;;;5054625;28;20488;-74
2024/01/11 04:09:33;;;;;;;0.20;0.20;;;-2.70;99.90;;;;;;5036630;28;20108;-73
2024/01/11 04:11:58;;;;;;;0.40;0.40;;;-2.70;99.90;;;;;;5054476;28;20040;-74
2024/01/11 04:14:24;;;;;;;0.73;0.73;;;-2.70;99.90;;;;;;5054249;28;20505;-73
2024/01/11 04:16:50;;;;;;;1.95;1.70;;;-2.50;99.90;;;;;;5036323;28;20055;-74
2024/01/11 04:19:15;;;;;;;0.28;0.28;;;-2.20;99.90;;;;;;5054533;28;20025;-73
2024/01/11 04:21:41;;;;;;;0.50;0.50;;;-2.10;99.90;;;;;;5054313;28;20101;-73
2024/01/11 04:24:07;;;;;;;0.55;0.55;;;-2.00;99.90;;;;;;5054201;28;20053;-73
2024/01/11 04:26:34;;;;;;;4.65;4.22;;;-2.00;99.90;;;;;;5054265;28;20025;-74
2024/01/11 04:29:00;;;;;;;0.45;0.45;;;-1.90;99.90;;;;;;5054188;28;20025;-74
2024/01/11 04:31:27;;;;;;;1.52;1.25;;;-1.90;99.90;;;;;;5053949;28;20017;-73
2024/01/11 04:33:53;;;;;;;0.95;0.95;;;-1.90;99.90;;;;;;5054172;28;20061;-73
2024/01/11 04:36:19;;;;;;;0.10;0.10;;;-1.80;99.90;;;;;;5053949;28;20434;-74
2024/01/11 04:38:45;;;;;;;5.38;4.82;;;-1.70;99.90;;;;;;5054166;28;20033;-73
2024/01/11 04:41:13;;;;;;;2.10;1.77;;;-1.70;99.90;;;;;;5036225;28;20021;-73
2024/01/11 04:43:40;;;;;;;0.65;0.65;;;-1.70;99.90;;;;;;5053992;28;20649;-73
2024/01/11 04:46:23;;;;;;;1.83;1.73;;;-1.70;99.90;;;;;;5035820;28;20021;-74
2024/01/11 04:48:49;;;;;;;0.30;0.30;;;-1.80;99.90;;;;;;5054004;28;20454;-74
2024/01/11 04:51:17;;;;;;;0.20;0.20;;;-1.80;99.90;;;;;;5036005;28;20021;-73
2024/01/11 04:53:44;;;;;;;0.40;0.40;;;-1.80;99.90;;;;;;5019496;28;20033;-74
2024/01/11 04:56:11;;;;;;;1.90;1.75;;;-1.70;99.90;;;;;;5053624;28;20462;-74
2024/01/11 04:58:40;;;;;;;0.70;0.47;;;-1.60;99.90;;;;;;5053619;28;20075;-73
2024/01/11 05:01:06;;;;;;;3.50;3.25;;;-1.60;99.90;;;;;;5053267;28;20104;-74
2024/01/11 05:03:32;;;;;;;0.20;0.20;;;-1.60;99.90;;;;;;5053450;28;20070;-74
2024/01/11 05:05:58;;;;;;;0.85;0.85;;;-1.70;99.90;;;;;;5053428;28;20041;-73
2024/01/11 05:08:29;;;;;;;2.58;2.38;;;-1.70;99.90;;;;;;5053273;28;20036;-74
2024/01/11 05:10:55;;;;;;;0.10;0.10;;;-1.80;99.90;;;;;;5053530;28;20101;-74
2024/01/11 05:13:21;;;;;;;0.10;0.10;;;-1.70;99.90;;;;;;5053261;28;20432;-74
2024/01/11 05:15:47;;;;;;;0.28;0.28;;;-1.70;99.90;;;;;;5052678;28;20033;-74
2024/01/11 05:18:13;;;;;;;0.38;0.38;;;-1.80;99.90;;;;;;5052840;28;20416;-74
2024/01/11 05:20:39;;;;;;;0.30;0.30;;;-1.70;99.90;;;;;;5053018;28;20041;-74
2024/01/11 05:23:06;;;;;;;0.20;0.20;;;-1.90;99.90;;;;;;5053283;28;20029;-74
2024/01/11 05:25:33;;;;;;;0.45;0.45;;;-1.90;99.90;;;;;;5053094;28;20029;-74
2024/01/11 05:28:03;;;;;;;2.60;1.15;;;-1.80;99.90;;;;;;5052937;28;20052;-73
2024/01/11 05:30:29;;;;;;;0.47;0.47;;;-1.90;99.90;;;;;;5035495;28;20068;-74
2024/01/11 05:32:55;;;;;;;0.55;0.55;;;-1.90;99.90;;;;;;5052962;28;20059;-74
2024/01/11 05:35:23;;;;;;;1.67;1.65;;;-2.00;99.90;;;;;;5035148;28;20021;-73
2024/01/11 05:37:50;;;;;;;0.10;0.10;;;-2.00;99.90;;;;;;5052930;28;20465;-74
2024/01/11 05:40:16;;;;;;;9.88;5.50;;;-2.00;99.90;;;;;;5053159;28;20024;-73
2024/01/11 05:42:42;;;;;;;0.10;0.10;;;-2.00;99.90;;;;;;5052753;28;20033;-74
2024/01/11 05:45:09;;;;;;;0.20;0.20;;;-1.90;99.90;;;;;;5052716;28;20029;-73
2024/01/11 05:47:34;;;;;;;0.13;0.13;;;-2.10;99.90;;;;;;5052637;28;20037;-74
2024/01/11 05:50:00;;;;;;;2.00;1.88;;;-2.10;99.90;;;;;;5052609;28;20032;-73
2024/01/11 05:52:26;;;;;;;0.63;0.63;;;-2.10;99.90;;;;;;5052903;28;20021;-74
2024/01/11 05:54:52;;;;;;;0.38;0.38;;;-2.10;99.90;;;;;;5052629;28;20021;-74
2024/01/11 05:57:17;;;;;;;1.13;0.95;;;-2.10;99.90;;;;;;5052652;28;20045;-74
2024/01/11 05:59:44;;;;;;;0.20;0.20;;;-2.10;99.90;;;;;;5052190;28;20035;-74
2024/01/11 06:02:11;;;;;;;2.03;1.90;;;-2.10;99.90;;;;;;5052502;28;20499;-73
2024/01/11 06:04:37;;;;;;;0.20;0.20;;;-2.00;99.90;;;;;;5052365;28;20025;-74
2024/01/11 06:07:03;;;;;;;0.80;0.80;;;-2.00;99.90;;;;;;5033685;28;20045;-74
2024/01/11 06:09:28;;;;;;;3.22;1.23;;;-1.90;99.90;;;;;;5052408;28;20032;-74
2024/01/11 06:11:54;;;;;;;2.45;2.35;;;-2.00;99.90;;;;;;5052449;28;20406;-73
2024/01/11 06:14:20;;;;;;;3.92;2.53;;;-2.00;99.90;;;;;;5052025;28;20033;-73
2024/01/11 06:16:46;;;;;;;0.20;0.20;;;-2.10;99.90;;;;;;5052256;28;20060;-74
2024/01/11 06:19:12;;;;;;;0.25;0.25;;;-2.00;99.90;;;;;;5052337;28;20107;-74
2024/01/11 06:21:38;;;;;;;0.40;0.40;;;-2.10;99.90;;;;;;5052596;28;20025;-74
2024/01/11 06:24:03;;;;;;;0.30;0.30;;;-2.10;99.90;;;;;;5052335;28;20469;-74
2024/01/11 06:26:30;;;;;;;0.10;0.10;;;-2.00;99.90;;;;;;5052506;28;20433;-74
2024/01/11 06:28:56;;;;;;;0.10;0.10;;;-2.10;99.90;;;;;;5054420;28;20036;-74
2024/01/11 06:31:23;;;;;;;0.45;0.45;;;-2.10;99.90;;;;;;5038738;28;20017;-73
2024/01/11 06:33:49;;;;;;;1.77;1.67;;;-2.20;99.90;;;;;;5056429;28;20025;-74
2024/01/11 06:36:14;;;;;;;0.40;0.40;;;-2.10;99.90;;;;;;5056311;28;20017;-74
2024/01/11 06:38:41;;;;;;;1.77;1.67;;;-2.10;99.90;;;;;;5056240;28;20026;-74
2024/01/11 06:41:07;;;;;;;0.30;0.30;;;-2.40;99.90;;;;;;5056524;28;20029;-74
2024/01/11 06:43:33;;;;;;;0.50;0.50;;;-2.40;99.90;;;;;;5056002;28;20523;-73
2024/01/11 06:46:06;;;;;;;0.20;0.20;;;-2.40;99.90;;;;;;5056318;28;20107;-74
2024/01/11 06:48:33;;;;;;;1.17;0.82;;;-2.30;99.90;;;;;;5055970;28;20040;-74
2024/01/11 06:51:00;;;;;;;4.15;3.83;;;-2.30;99.90;;;;;;5056155;28;20035;-73
2024/01/11 06:53:26;;;;;;;0.50;0.50;;;-2.30;99.90;;;;;;5055844;28;20104;-73
2024/01/11 06:55:52;;;;;;;1.85;1.40;;;-2.20;99.90;;;;;;5055948;28;20029;-74
2024/01/11 06:58:23;;;;;;;0.20;0.20;;;-2.30;99.90;;;;;;5055804;28;20024;-73
2024/01/11 07:00:50;;;;;;;3.70;0.93;;;-2.30;99.90;;;;;;5037928;28;20036;-74
2024/01/11 07:03:16;;;;;;;3.30;3.10;;;-2.40;99.90;;;;;;5055835;28;20059;-73
2024/01/11 07:05:42;;;;;;;15.00;4.97;;;-2.30;99.90;;;;;;5055709;28;20075;-74
2024/01/11 07:08:08;;;;;;;0.40;0.40;;;-2.30;99.90;;;;;;5056070;28;20061;-73
2024/01/11 07:10:34;;;;;;;0.20;0.20;;;-2.30;99.90;;;;;;5055865;28;20545;-73
2024/01/11 07:12:59;;;;;;;0.20;0.20;;;-2.20;99.90;;;;;;5055624;28;20618;-73
2024/01/11 07:15:25;;;;;;;0.20;0.20;;;-2.30;99.90;;;;;;5037358;28;20025;-74
2024/01/11 07:17:53;;;;;;;1.95;1.85;;;-2.30;99.90;;;;;;5054211;28;20071;-74
2024/01/11 07:20:19;;;;;;;0.85;0.85;;;-2.20;99.90;;;;;;5037869;28;20048;-74
2024/01/11 07:22:45;;;;;;;0.28;0.28;;;-2.10;99.90;;;;;;5037563;28;20033;-73
2024/01/11 07:25:11;;;;;;;2.17;1.77;;;-2.10;99.90;;;;;;5055547;28;20029;-73
2024/01/11 07:27:36;;;;;;;0.57;0.57;;;-2.20;99.90;;;;;;5037358;28;20029;-73
2024/01/11 07:30:03;;;;;;;1.55;1.48;;;-2.30;99.90;;;;;;5055087;28;20421;-73
2024/01/11 07:32:28;;;;;;;3.83;3.00;;;-2.30;99.90;;;;;;5054989;28;20025;-73
2024/01/11 07:34:54;;;;;;;0.80;0.80;;;-2.40;99.90;;;;;;5036363;28;20438;-73
2024/01/11 07:37:20;;;;;;;0.20;0.20;;;-2.30;99.90;;;;;;5054821;28;20025;-74
2024/01/11 07:39:46;;;;;;;0.50;0.50;;;-2.30;99.90;;;;;;5053871;28;20056;-74
2024/01/11 07:42:13;;;;;;;0.65;0.65;;;-2.30;99.90;;;;;;5055004;28;20029;-74
2024/01/11 07:44:38;;;;;;;0.85;0.85;;;-2.30;99.90;;;;;;5054725;28;20071;-74
2024/01/11 07:47:04;;;;;;;0.52;0.52;;;-2.30;99.90;;;;;;5055158;28;20080;-73
2024/01/11 07:49:30;;;;;;;0.57;0.57;;;-2.40;99.90;;;;;;5054907;28;20032;-74
2024/01/11 07:51:56;;;;;;;0.20;0.20;;;-2.40;99.90;;;;;;5037296;28;20032;-73
2024/01/11 07:54:22;;;;;;;1.10;1.10;;;-2.50;99.90;;;;;;5054666;28;20033;-74
2024/01/11 07:56:49;;;;;;;0.30;0.30;;;-2.50;99.90;;;;;;5037159;28;20021;-73
2024/01/11 07:59:14;;;;;;;0.22;0.22;;;-2.40;99.90;;;;;;5055217;28;20538;-74
2024/01/11 08:01:41;;;;;;;1.35;1.05;;;-2.40;99.90;;;;;;5054570;28;20021;-74
2024/01/11 08:04:06;;;;;;;2.25;1.27;;;-2.20;99.90;;;;;;5054850;28;20025;-74
2024/01/11 08:06:32;;;;;;;0.20;0.20;;;-2.20;99.90;;;;;;5054516;28;20120;-74
2024/01/11 08:08:58;;;;;;;0.30;0.30;;;-2.10;99.90;;;;;;5054431;28;20459;-74
2024/01/11 08:11:24;;;;;;;4.95;1.58;;;-2.00;99.90;;;;;;5054593;28;20489;-74
2024/01/11 08:13:49;;;;;;;16.58;15.13;;;-2.10;99.90;;;;;;5054529;28;20465;-73
2024/01/11 08:16:18;;;;;;;0.57;0.57;;;-2.10;99.90;;;;;;5036455;28;20370;-74
2024/01/11 08:18:45;;;;;;;0.95;0.95;;;-2.10;99.90;;;;;;5054528;28;20029;-73
2024/01/11 08:21:11;;;;;;;0.10;0.10;;;-2.30;99.90;;;;;;5036641;28;20043;-74
2024/01/11 08:23:48;;;;;;;1.58;1.55;;;-2.20;99.90;;;;;;5052906;28;20032;-73
2024/01/11 08:26:14;;;;;;;0.40;0.40;;;-2.20;99.90;;;;;;5054179;28;20111;-73
2024/01/11 08:28:41;;;;;;;0.28;0.28;;;-2.10;99.90;;;;;;5054472;28;20135;-73
2024/01/11 08:31:07;;;;;;;0.20;0.20;;;-2.00;99.90;;;;;;5054197;28;20096;-73
2024/01/11 08:33:33;;;;;;;0.63;0.63;;;-1.90;99.90;;;;;;5054176;28;20032;-73
2024/01/11 08:35:59;;;;;;;4.57;2.72;;;-1.80;99.90;;;;;;5052730;28;20033;-73
2024/01/11 08:38:24;;;;;;;0.10;0.10;;;-1.70;99.90;;;;;;5053954;28;20461;-73
2024/01/11 08:40:51;;;;;;;1.10;1.08;;;-1.70;99.90;;;;;;5036156;28;20033;-73
2024/01/11 08:43:17;;;;;;;4.13;3.78;;;-1.70;99.90;;;;;;5054092;28;20021;-73
2024/01/11 08:45:46;;;;;;;0.20;0.20;;;-1.60;99.90;;;;;;5036060;28;20540;-74
2024/01/11 08:48:13;;;;;;;0.20;0.20;;;-1.60;99.90;;;;;;5035844;28;20148;-73
2024/01/11 08:50:39;;;;;;;0.20;0.20;;;-1.60;99.90;;;;;;5036036;28;20037;-73
2024/01/11 08:53:05;;;;;;;0.60;0.60;;;-1.50;99.90;;;;;;5035416;28;20032;-73
2024/01/11 08:55:30;;;;;;;0.73;0.73;;;-1.40;99.90;;;;;;5054030;28;20074;-73
2024/01/11 08:57:57;;;;;;;0.10;0.10;;;-1.30;99.90;;;;;;5053356;28;20029;-74
2024/01/11 09:00:23;;;;;;;0.20;0.20;;;-1.20;99.90;;;;;;5053705;28;20029;-73
2024/01/11 09:02:49;;;;;;;11.68;4.30;;;-0.90;99.90;;;;;;5052720;28;20071;-74
2024/01/11 09:05:15;;;;;;;6.65;4.40;;;-0.80;99.90;;;;;;5035583;28;20021;-73
2024/01/11 09:07:41;;;;;;;4.38;1.30;;;-0.80;99.90;;;;;;5053247;28;20040;-74
2024/01/11 09:10:11;;;;;;;0.75;0.60;;;-0.70;99.90;;;;;;5053349;28;20025;-73
2024/01/11 09:12:37;;;;;;;0.10;0.10;;;-0.40;99.90;;;;;;5053487;28;20486;-74
2024/01/11 09:15:03;;;;;;;4.60;3.20;;;-0.50;99.90;;;;;;5053257;28;20068;-74
2024/01/11 09:17:29;;;;;;;0.10;0.10;;;-0.10;99.90;;;;;;5053198;28;20533;-74
2024/01/11 09:19:55;;;;;;;0.43;0.43;;;0.10;99.90;;;;;;5053489;28;20131;-74
2024/01/11 09:22:21;;;;;;;2.35;2.15;;;0.40;99.90;;;;;;5052911;28;20421;-74
2024/01/11 09:24:46;;;;;;;0.10;0.10;;;0.30;99.90;;;;;;5053191;28;20106;-74
2024/01/11 09:27:13;;;;;;;0.38;0.38;;;0.50;99.90;;;;;;5035326;28;20515;-74
2024/01/11 09:29:48;;;;;;;7.68;3.80;;;0.90;99.90;;;;;;5053153;28;20017;-74
2024/01/11 09:32:14;;;;;;;2.85;2.08;;;1.00;99.90;;;;;;5053093;28;20112;-74
2024/01/11 09:34:40;;;;;;;1.45;1.35;;;1.00;99.90;;;;;;5052586;28;20025;-74
2024/01/11 09:37:06;;;;;;;2.80;2.60;;;1.30;99.90;;;;;;5052207;28;20033;-74
2024/01/11 09:39:32;;;;;;;1.23;0.80;;;1.20;99.90;;;;;;5053182;28;20039;-74
2024/01/11 09:42:01;;;;;;;0.63;0.63;;;1.30;99.90;;;;;;5053292;28;20040;-74
2024/01/11 09:44:27;;;;;;;7.00;2.22;;;1.30;99.90;;;;;;5052807;28;20028;-74
2024/01/11 09:46:54;;;;;;;0.55;0.55;;;1.40;99.90;;;;;;5052881;28;20040;-74
2024/01/11 09:49:23;;;;;;;0.30;0.30;;;1.70;99.90;;;;;;5052837;28;20025;-74
2024/01/11 09:51:50;;;;;;;1.35;1.27;;;2.40;99.90;;;;;;5052669;28;20040;-74
2024/01/11 09:54:21;;;;;;;1.08;1.00;;;2.30;99.90;;;;;;5052698;28;20025;-73
2024/01/11 09:56:51;;;;;;;0.98;0.98;;;2.20;99.90;;;;;;5052638;28;20416;-73
2024/01/11 09:59:19;;;;;;;6.22;3.47;;;2.30;99.90;;;;;;5052648;28;20504;-73
2024/01/11 10:01:46;;;;;;;0.57;0.57;;;2.30;99.90;;;;;;5052735;28;20454;-73
2024/01/11 10:04:14;;;;;;;0.25;0.22;;;2.30;99.90;;;;;;5052303;28;20108;-74
2024/01/11 10:06:41;;;;;;;0.20;0.20;;;2.70;99.90;;;;;;5052071;28;20497;-74
2024/01/11 10:09:07;;;;;;;2.63;2.20;;;3.40;99.90;;;;;;5052670;28;20489;-73
2024/01/11 10:11:34;;;;;;;4.57;4.13;;;3.60;99.90;;;;;;5052494;28;20048;-73
2024/01/11 10:14:01;;;;;;;1.00;0.95;;;2.90;99.90;;;;;;5034607;28;20039;-73
2024/01/11 10:16:28;;;;;;;4.07;3.28;;;2.80;99.90;;;;;;5052538;28;20496;-73
2024/01/11 10:18:55;;;;;;;0.15;0.15;;;3.10;99.90;;;;;;5034619;28;20127;-73
2024/01/11 10:21:21;;;;;;;0.25;0.25;;;3.80;99.90;;;;;;5052446;28;20029;-73
2024/01/11 10:23:49;;;;;;;0.68;0.68;;;3.70;99.70;;;;;;5034588;28;20032;-73
2024/01/11 10:26:19;;;;;;;2.25;1.67;;;3.90;99.60;;;;;;5052519;28;20373;-73
2024/01/11 10:28:45;;;;;;;1.33;1.23;;;3.70;99.20;;;;;;5052322;28;20392;-73
2024/01/11 10:31:11;;;;;;;1.95;1.85;;;4.00;99.80;;;;;;5052294;28;20021;-73
2024/01/11 10:33:37;;;;;;;0.20;0.20;;;3.70;98.90;;;;;;5052514;28;20032;-73
2024/01/11 10:36:04;;;;;;;0.32;0.32;;;4.30;99.40;;;;;;5052535;28;20033;-73
2024/01/11 10:38:33;;;;;;;0.98;0.52;;;4.60;98.40;;;;;;5052208;28;20021;-73
2024/01/11 10:41:04;;;;;;;2.58;2.13;;;5.00;97.90;;;;;;5052332;28;20043;-73
2024/01/11 10:43:34;;;;;;;6.72;4.43;;;4.80;97.30;;;;;;5034485;28;20021;-73
2024/01/11 10:46:04;;;;;;;3.05;2.75;;;5.40;97.50;;;;;;5034181;28;20040;-73
2024/01/11 10:48:32;;;;;;;2.75;2.55;;;5.10;96.50;;;;;;5051872;28;20338;-73
2024/01/11 10:51:05;;;;;;;3.42;1.20;;;5.10;97.50;;;;;;5052528;28;20426;-76
2024/01/11 10:53:36;;;;;;;0.55;0.55;;;5.60;97.10;;;;;;5052177;28;20021;-74
2024/01/11 10:56:05;;;;;;;1.10;1.02;;;5.80;97.10;;;;;;5052331;28;20474;-74
2024/01/11 10:58:32;;;;;;;4.95;4.25;;;6.00;96.20;;;;;;5051926;28;20040;-74
2024/01/11 11:01:00;;;;;;;3.30;1.25;;;6.20;95.80;;;;;;5052033;28;20021;-74
2024/01/11 11:03:28;;;;;;;2.10;1.98;;;6.20;95.30;;;;;;5051438;28;20481;-74
2024/01/11 11:05:55;;;;;;;1.55;1.30;;;6.40;95.30;;;;;;5052155;28;20036;-74
2024/01/11 11:08:26;;;;;;;0.85;0.68;;;6.80;94.90;;;;;;5051963;28;20040;-74
2024/01/11 11:10:57;;;;;;;4.70;2.50;;;6.90;94.30;;;;;;5034324;28;20025;-74
2024/01/11 11:13:24;;;;;;;2.53;2.33;;;6.30;94.90;;;;;;5051872;28;20047;-74
2024/01/11 11:15:50;;;;;;;0.38;0.38;;;6.60;95.20;;;;;;5053934;28;20428;-74
2024/01/11 11:18:18;;;;;;;1.65;1.27;;;6.60;94.90;;;;;;5037776;28;20037;-74
2024/01/11 11:20:44;;;;;;;3.47;3.20;;;6.70;95.20;;;;;;5055471;28;20025;-74
2024/01/11 11:23:12;;;;;;;1.27;1.27;;;7.40;93.80;;;;;;5037690;28;20025;-74
2024/01/11 11:25:40;;;;;;;7.43;3.08;;;6.80;93.60;;;;;;5055491;28;20037;-73
2024/01/11 11:28:06;;;;;;;6.72;2.33;;;6.50;93.70;;;;;;5055572;28;20116;-74
2024/01/11 11:30:33;;;;;;;10.43;3.75;;;6.80;93.80;;;;;;5055282;28;20105;-74
2024/01/11 11:33:15;;;;;;;3.03;2.70;;;7.10;93.10;;;;;;5037045;28;20025;-74
2024/01/11 11:35:42;;;;;;;;;;;6.80;93.10;;;;;;5055806;28;20067;-74
2024/01/11 11:38:16;;;;;;;2.53;1.95;;;7.00;93.30;;;;;;5056095;28;20414;-74
2024/01/11 11:40:45;;;;;;;1.00;1.00;;;7.00;93.40;;;;;;5055186;28;20040;-74
2024/01/11 11:43:10;;;;;;;4.55;1.85;;;7.20;93.30;;;;;;5055184;28;20473;-73
2024/01/11 11:45:38;;;;;;;0.82;0.82;;;7.40;93.10;;;;;;5055432;28;20036;-73
2024/01/11 11:48:28;;;;;;;0.35;0.35;;;7.40;93.20;;;;;;5054591;28;20041;-73
2024/01/11 11:51:10;;;;;;;0.85;0.85;;;8.00;92.70;;;;;;5055196;28;20049;-73
2024/01/11 11:53:40;;;;;;;1.15;0.82;;;8.50;92.50;;;;;;5024569;28;20480;-73
2024/01/11 11:56:09;;;;;;;0.17;0.17;;;8.10;92.10;;;;;;5054948;28;20029;-73
2024/01/11 11:58:35;;;;;;;5.43;4.47;;;8.00;93.20;;;;;;5055116;28;20438;-73
2024/01/11 12:01:03;;;;;;;0.93;0.93;;;8.20;92.40;;;;;;5054535;28;20428;-73
2024/01/11 12:03:30;;;;;;;0.70;0.70;;;7.60;92.80;;;;;;5054860;28;20031;-73
2024/01/11 12:05:57;;;;;;;26.40;6.03;;;8.30;93.30;;;;;;5054689;28;20013;-73
2024/01/11 12:08:23;;;;;;;0.75;0.75;;;8.50;92.30;;;;;;5054706;28;20094;-73
2024/01/11 12:10:49;;;;;;;1.08;1.08;;;8.40;92.30;;;;;;5054596;28;20025;-73
2024/01/11 12:13:15;;;;;;;2.60;2.42;;;8.90;91.70;;;;;;5054880;28;20032;-73
2024/01/11 12:15:41;;;;;;;0.52;0.52;;;8.50;91.70;;;;;;5054093;28;20603;-73
2024/01/11 12:18:07;;;;;;;3.15;2.05;;;8.80;91.40;;;;;;5053276;28;20124;-73
2024/01/11 12:20:33;;;;;;;4.03;3.72;;;9.00;91.20;;;;;;5054235;28;20124;-73
2024/01/11 12:22:59;;;;;;;8.35;2.05;;;8.80;91.20;;;;;;5054479;28;20048;-73
2024/01/11 12:25:26;;;;;;;1.17;0.82;;;8.90;91.00;;;;;;5036304;28;20021;-73
2024/01/11 12:27:52;;;;;;;4.20;2.17;;;9.30;90.70;;;;;;5036595;28;20104;-73
2024/01/11 12:30:18;;;;;;;1.10;1.00;;;9.10;90.30;;;;;;5054191;28;20056;-73
2024/01/11 12:32:44;;;;;;;1.15;1.05;;;9.30;90.10;;;;;;5053049;28;20032;-74
2024/01/11 12:35:10;;;;;;;2.33;2.17;;;9.80;89.60;;;;;;5054688;28;20064;-73
2024/01/11 12:37:36;;;;;;;0.95;0.75;;;9.40;89.50;;;;;;5053968;28;20025;-73
2024/01/11 12:40:03;;;;;;;3.53;1.27;;;9.40;88.90;;;;;;5036396;28;20061;-73
2024/01/11 12:42:29;;;;;;;0.88;0.88;;;9.20;89.60;;;;;;5054075;28;20052;-73
2024/01/11 12:44:55;;;;;;;6.72;4.00;;;8.90;90.20;;;;;;5053355;28;20036;-73
2024/01/11 12:47:21;;;;;;;0.73;0.73;;;9.30;88.60;;;;;;5053552;28;20067;-73